Time;durP1;ratioP1;P1;durP2;ratioP2;P2;SDS_P1;SDS_P2;PMS_P1;PMS_P2;Temp;Humidity;BMP_temperature;BMP_pressure;BME280_temperature;BME280_humidity;BME280_pressure;Samples;Min_cycle;Max_cycle;Signal;HPM_P1;HPM_P2
2022/12/27 00:01:13;;;;;;;4.93;1.08;;;7.70;99.90;;;;;;4986701;28;20026;-76
2022/12/27 00:03:40;;;;;;;2.78;1.33;;;7.70;99.90;;;;;;4994017;28;20030;-78
2022/12/27 00:06:17;;;;;;;7.18;1.05;;;7.60;99.90;;;;;;5000634;28;20054;-79
2022/12/27 00:08:43;;;;;;;2.70;0.93;;;7.60;99.90;;;;;;5018308;28;20029;-77
2022/12/27 00:11:11;;;;;;;2.17;0.88;;;7.50;99.90;;;;;;4991398;28;20041;-78
2022/12/27 00:13:37;;;;;;;2.25;1.13;;;7.50;99.90;;;;;;5001037;28;20471;-78
2022/12/27 00:16:11;;;;;;;5.53;1.75;;;7.50;99.90;;;;;;5002452;28;20038;-77
2022/12/27 00:18:38;;;;;;;1.75;0.60;;;7.40;99.90;;;;;;4992099;28;20030;-77
2022/12/27 00:21:06;;;;;;;2.97;0.85;;;7.40;99.90;;;;;;5023962;28;20073;-78
2022/12/27 00:23:37;;;;;;;2.85;0.88;;;7.40;99.90;;;;;;5021121;28;20018;-78
2022/12/27 00:26:06;;;;;;;2.95;0.73;;;7.30;99.90;;;;;;5014960;28;20050;-78
2022/12/27 00:28:32;;;;;;;2.10;0.80;;;7.30;99.90;;;;;;5031143;28;20030;-78
2022/12/27 00:30:59;;;;;;;2.08;1.30;;;7.20;99.90;;;;;;5009484;28;20029;-77
2022/12/27 00:33:26;;;;;;;1.92;1.00;;;7.30;99.90;;;;;;5004091;28;20034;-78
2022/12/27 00:35:52;;;;;;;3.38;0.77;;;7.20;99.90;;;;;;5016377;28;20049;-78
2022/12/27 00:38:19;;;;;;;1.83;1.02;;;7.20;99.90;;;;;;5022731;28;20022;-78
2022/12/27 00:40:44;;;;;;;3.33;1.50;;;7.20;99.90;;;;;;5023173;28;20025;-78
2022/12/27 00:43:10;;;;;;;3.55;1.60;;;7.20;99.90;;;;;;5027262;28;20026;-78
2022/12/27 00:45:36;;;;;;;4.43;1.05;;;7.10;99.90;;;;;;5024293;28;20029;-77
2022/12/27 00:48:01;;;;;;;4.07;1.00;;;7.10;99.90;;;;;;5027688;28;20110;-76
2022/12/27 00:50:27;;;;;;;2.97;1.38;;;7.10;99.90;;;;;;5029254;28;20088;-75
2022/12/27 00:52:53;;;;;;;3.03;1.20;;;7.10;99.90;;;;;;5011574;28;20145;-78
2022/12/27 00:55:19;;;;;;;6.13;1.17;;;7.10;99.90;;;;;;5029163;28;20048;-79
2022/12/27 00:57:45;;;;;;;2.83;1.00;;;7.10;99.90;;;;;;5008631;28;20061;-79
2022/12/27 01:00:12;;;;;;;2.95;1.15;;;7.00;99.90;;;;;;5030607;28;20518;-79
2022/12/27 01:02:37;;;;;;;4.22;0.93;;;7.00;99.90;;;;;;5033682;28;20025;-79
2022/12/27 01:05:03;;;;;;;1.98;0.90;;;7.00;99.90;;;;;;5029925;28;20026;-79
2022/12/27 01:07:29;;;;;;;5.82;1.50;;;6.90;99.90;;;;;;5029882;28;20026;-79
2022/12/27 01:09:54;;;;;;;6.97;1.63;;;6.90;99.90;;;;;;5025092;28;20129;-78
2022/12/27 01:12:20;;;;;;;5.50;1.20;;;6.80;99.90;;;;;;5027441;28;20030;-77
2022/12/27 01:14:46;;;;;;;2.53;1.23;;;6.80;99.90;;;;;;5022569;28;20026;-78
2022/12/27 01:17:11;;;;;;;2.53;1.38;;;6.70;99.90;;;;;;5022785;28;20058;-79
2022/12/27 01:19:37;;;;;;;3.58;1.50;;;6.60;99.90;;;;;;5026117;28;20084;-78
2022/12/27 01:22:04;;;;;;;4.10;1.25;;;6.60;99.90;;;;;;5030916;28;20076;-77
2022/12/27 01:24:31;;;;;;;2.38;1.50;;;6.60;99.90;;;;;;5011801;28;20105;-79
2022/12/27 01:26:57;;;;;;;4.50;1.30;;;6.60;99.90;;;;;;5024399;28;20041;-77
2022/12/27 01:29:23;;;;;;;2.55;1.17;;;6.60;99.90;;;;;;5009328;28;20033;-78
2022/12/27 01:31:48;;;;;;;4.50;1.10;;;6.50;99.90;;;;;;5028342;28;20912;-79
2022/12/27 01:34:15;;;;;;;3.50;1.23;;;6.50;99.90;;;;;;5024531;28;20021;-79
2022/12/27 01:36:41;;;;;;;2.17;1.00;;;6.40;99.90;;;;;;5027162;28;20141;-75
2022/12/27 01:39:09;;;;;;;3.47;1.10;;;6.40;99.90;;;;;;5021959;28;20030;-77
2022/12/27 01:44:55;;;;;;;3.70;1.42;;;6.40;99.90;;;;;;5022698;28;20085;-76
2022/12/27 01:47:25;;;;;;;2.25;1.10;;;6.30;99.90;;;;;;4993988;28;20042;-79
2022/12/27 01:50:15;;;;;;;3.40;1.42;;;6.30;99.90;;;;;;5024759;28;20017;-79
2022/12/27 01:53:00;;;;;;;5.60;1.38;;;6.30;99.90;;;;;;5023458;28;20083;-75
2022/12/27 01:55:50;;;;;;;5.65;1.25;;;6.30;99.90;;;;;;5005624;28;20034;-78
2022/12/27 01:58:31;;;;;;;4.82;1.42;;;6.20;99.90;;;;;;5007862;28;20060;-79
2022/12/27 02:00:57;;;;;;;2.72;1.17;;;6.20;99.90;;;;;;5022209;28;20093;-77
2022/12/27 02:03:33;;;;;;;4.28;1.40;;;6.20;99.90;;;;;;5025339;28;20085;-78
2022/12/27 02:06:01;;;;;;;3.50;1.10;;;6.20;99.90;;;;;;5006403;28;20018;-78
2022/12/27 02:09:04;;;;;;;9.98;1.20;;;6.20;99.90;;;;;;5024943;28;20018;-77
2022/12/27 02:11:51;;;;;;;5.75;1.38;;;6.10;99.90;;;;;;5024062;28;20394;-79
2022/12/27 02:14:31;;;;;;;4.00;1.50;;;6.10;99.90;;;;;;5026108;28;20117;-76
2022/12/27 02:16:59;;;;;;;4.50;1.67;;;6.00;99.90;;;;;;5027058;28;20116;-79
2022/12/27 02:19:40;;;;;;;3.25;0.75;;;6.00;99.90;;;;;;5026177;28;20025;-79
2022/12/27 02:22:05;;;;;;;2.55;1.15;;;5.90;99.90;;;;;;5026913;28;20090;-77
2022/12/27 02:24:43;;;;;;;4.90;0.90;;;5.90;99.90;;;;;;5008806;28;20025;-79
2022/12/27 02:27:38;;;;;;;1.95;0.80;;;5.90;99.90;;;;;;5008892;28;20022;-79
2022/12/27 02:30:09;;;;;;;2.08;0.98;;;5.80;99.90;;;;;;5026246;28;20036;-78
2022/12/27 02:32:37;;;;;;;3.10;0.73;;;5.70;99.90;;;;;;5006066;28;20037;-79
2022/12/27 02:35:06;;;;;;;5.85;1.23;;;5.70;99.90;;;;;;5007787;28;20029;-78
2022/12/27 02:37:36;;;;;;;1.85;0.90;;;5.70;99.90;;;;;;5025450;28;20030;-76
2022/12/27 02:55:08;;;;;;;2.17;0.85;;;5.50;99.90;;;;;;5007136;28;20084;-79
2022/12/27 02:57:51;;;;;;;2.80;0.80;;;5.50;99.90;;;;;;5014440;28;20537;-78
2022/12/27 03:03:28;;;;;;;1.67;0.60;;;5.40;99.90;;;;;;5022591;28;20025;-78
2022/12/27 03:06:41;;;;;;;5.45;1.00;;;5.40;99.90;;;;;;5004537;28;20022;-77
2022/12/27 03:15:53;;;;;;;3.42;0.90;;;5.40;99.90;;;;;;5018935;28;20053;-77
2022/12/27 03:17:55;;;;;;;1.45;0.70;;;5.30;99.90;;;;;;5036956;28;20041;-79
2022/12/27 03:26:04;;;;;;;4.07;1.20;;;5.20;99.90;;;;;;4951800;28;20067;-78
2022/12/27 03:34:30;;;;;;;3.78;1.23;;;5.10;99.90;;;;;;5024272;28;20053;-78
2022/12/27 03:40:14;;;;;;;2.55;1.25;;;4.90;99.90;;;;;;5025974;28;20056;-79
2022/12/27 03:43:09;;;;;;;3.85;1.10;;;4.90;99.90;;;;;;4995297;28;20053;-79
2022/12/27 03:48:27;;;;;;;4.75;1.88;;;4.70;99.90;;;;;;5022540;28;20548;-78
2022/12/27 03:51:03;;;;;;;4.15;1.65;;;4.70;99.90;;;;;;5020249;28;20120;-76
2022/12/27 03:53:35;;;;;;;2.80;1.23;;;4.60;99.90;;;;;;4997704;28;20031;-75
2022/12/27 03:56:02;;;;;;;3.22;1.65;;;4.60;99.90;;;;;;5014576;28;20105;-76
2022/12/27 03:58:28;;;;;;;5.82;1.40;;;4.60;99.90;;;;;;5017076;28;20026;-77
2022/12/27 04:00:53;;;;;;;5.35;1.85;;;4.50;99.90;;;;;;5016379;28;20032;-77
2022/12/27 04:03:19;;;;;;;10.27;2.03;;;4.50;99.90;;;;;;4998884;28;20022;-76
2022/12/27 04:05:45;;;;;;;6.57;1.42;;;4.40;99.90;;;;;;5016800;28;20030;-78
2022/12/27 04:35:31;;;;;;;;;;;4.20;99.90;;;;;;5004528;28;20458;-75
2022/12/27 04:37:57;;;;;;;2.85;1.10;;;4.10;99.90;;;;;;5010403;28;19917;-75
2022/12/27 04:57:02;;;;;;;3.20;1.27;;;4.00;99.90;;;;;;5006402;28;20053;-75
2022/12/27 05:02:11;;;;;;;;;;;4.00;99.90;;;;;;5012048;28;20033;-75
2022/12/27 05:04:38;;;;;;;4.45;1.10;;;3.90;99.90;;;;;;5009593;28;20285;-74
2022/12/27 05:15:22;;;;;;;2.50;1.23;;;3.90;99.90;;;;;;5008768;28;20052;-75
2022/12/27 05:17:47;;;;;;;1.70;1.20;;;3.80;99.90;;;;;;4994110;28;20037;-74
2022/12/27 05:20:13;;;;;;;2.50;1.27;;;3.80;99.90;;;;;;5011137;28;20022;-75
2022/12/27 05:25:35;;;;;;;4.45;1.17;;;3.80;99.90;;;;;;5009036;28;20133;-75
2022/12/27 05:28:03;;;;;;;2.65;0.95;;;3.80;99.90;;;;;;5013343;28;20056;-75
2022/12/27 05:30:30;;;;;;;5.18;1.23;;;3.80;99.90;;;;;;4989973;28;20025;-76
2022/12/27 05:32:56;;;;;;;4.50;0.82;;;3.80;99.90;;;;;;5005122;28;20945;-75
2022/12/27 05:35:22;;;;;;;6.25;1.02;;;3.70;99.90;;;;;;5007095;28;20037;-75
2022/12/27 05:37:47;;;;;;;2.17;0.90;;;3.70;99.90;;;;;;5007888;28;20030;-76
2022/12/27 05:40:13;;;;;;;2.75;1.25;;;3.70;99.90;;;;;;4989393;28;20038;-75
2022/12/27 05:42:39;;;;;;;3.88;1.30;;;3.70;99.90;;;;;;5006748;28;20057;-74
2022/12/27 05:45:05;;;;;;;3.78;1.95;;;3.70;99.90;;;;;;5006288;28;20025;-74
2022/12/27 05:47:31;;;;;;;4.75;1.08;;;3.70;99.90;;;;;;5003568;28;20045;-74
2022/12/27 05:49:56;;;;;;;4.70;1.15;;;3.70;99.90;;;;;;5004711;28;20025;-72
2022/12/27 05:52:23;;;;;;;3.30;1.30;;;3.70;99.90;;;;;;5006959;28;20470;-72
2022/12/27 05:54:48;;;;;;;3.38;1.00;;;3.70;99.90;;;;;;4988942;28;20026;-76
2022/12/27 05:57:14;;;;;;;5.55;1.05;;;3.70;99.90;;;;;;5012059;28;20033;-76
2022/12/27 05:59:40;;;;;;;2.58;1.00;;;3.80;99.90;;;;;;5017564;28;20113;-75
2022/12/27 06:02:05;;;;;;;5.35;2.03;;;3.80;99.90;;;;;;5008323;28;20458;-75
2022/12/27 06:04:31;;;;;;;3.72;1.30;;;3.80;99.90;;;;;;4986315;28;20133;-75
2022/12/27 06:06:58;;;;;;;5.82;1.30;;;3.70;99.90;;;;;;5009636;28;20030;-74
2022/12/27 06:09:24;;;;;;;2.20;1.25;;;3.70;99.90;;;;;;5007156;28;20034;-75
2022/12/27 06:11:49;;;;;;;4.25;1.85;;;3.70;99.90;;;;;;5009681;28;20030;-75
2022/12/27 06:14:15;;;;;;;2.47;1.30;;;3.70;99.90;;;;;;5009525;28;20450;-76
2022/12/27 06:16:41;;;;;;;4.18;1.77;;;3.70;99.90;;;;;;5009562;28;20068;-75
2022/12/27 06:19:06;;;;;;;7.38;1.80;;;3.70;99.90;;;;;;5006306;28;20106;-75
2022/12/27 06:21:32;;;;;;;10.52;2.00;;;3.60;99.90;;;;;;5006963;28;20451;-75
2022/12/27 06:23:58;;;;;;;5.22;1.33;;;3.60;99.90;;;;;;5005536;28;20104;-74
2022/12/27 06:26:26;;;;;;;4.50;1.67;;;3.60;99.90;;;;;;5006181;28;20961;-75
2022/12/27 06:28:54;;;;;;;4.13;1.60;;;3.60;99.90;;;;;;5004864;28;20032;-75
2022/12/27 06:31:20;;;;;;;6.15;1.88;;;3.50;99.90;;;;;;4983574;28;20026;-75
2022/12/27 06:33:47;;;;;;;4.43;1.67;;;3.50;99.90;;;;;;5007446;28;20044;-75
2022/12/27 06:36:14;;;;;;;5.47;2.97;;;3.50;99.90;;;;;;5010974;28;20038;-76
2022/12/27 06:38:40;;;;;;;9.20;2.33;;;3.50;99.90;;;;;;5008797;28;20080;-75
2022/12/27 06:41:09;;;;;;;8.05;1.80;;;3.50;99.90;;;;;;5007420;28;20101;-74
2022/12/27 06:43:35;;;;;;;4.80;1.88;;;3.40;99.90;;;;;;5002847;28;20028;-74
2022/12/27 06:46:03;;;;;;;4.38;1.75;;;3.40;99.90;;;;;;5008470;28;20026;-75
2022/12/27 06:48:29;;;;;;;3.97;1.60;;;3.40;99.90;;;;;;4985664;28;20026;-76
2022/12/27 06:50:55;;;;;;;5.65;1.58;;;3.30;99.90;;;;;;5001668;28;20033;-76
2022/12/27 06:53:21;;;;;;;7.00;1.90;;;3.30;99.90;;;;;;5009988;28;20391;-76
2022/12/27 06:55:47;;;;;;;4.85;1.98;;;3.30;99.90;;;;;;4993740;28;20029;-76
2022/12/27 06:58:13;;;;;;;5.70;1.70;;;3.30;99.90;;;;;;4998574;28;20546;-75
2022/12/27 07:00:40;;;;;;;4.13;1.65;;;3.20;99.90;;;;;;5009742;28;20022;-77
2022/12/27 07:03:05;;;;;;;4.72;1.83;;;3.20;99.90;;;;;;5012859;28;20057;-76
2022/12/27 07:05:34;;;;;;;7.10;1.88;;;3.20;99.90;;;;;;5007379;28;20521;-76
2022/12/27 07:07:59;;;;;;;11.63;2.70;;;3.10;99.90;;;;;;4991627;28;20029;-75
2022/12/27 07:10:25;;;;;;;8.25;2.25;;;3.10;99.90;;;;;;4980841;28;20450;-77
2022/12/27 07:12:51;;;;;;;5.15;2.08;;;3.10;99.90;;;;;;5006950;28;20043;-77
2022/12/27 07:15:16;;;;;;;6.00;2.10;;;3.00;99.90;;;;;;4995925;28;20117;-75
2022/12/27 07:17:42;;;;;;;8.68;2.47;;;3.00;99.90;;;;;;5005563;28;20034;-76
2022/12/27 07:20:08;;;;;;;6.18;2.30;;;3.00;99.90;;;;;;5006203;28;20024;-76
2022/12/27 07:22:34;;;;;;;4.93;2.85;;;3.00;99.90;;;;;;4993745;28;20029;-76
2022/12/27 07:24:59;;;;;;;7.13;1.80;;;2.90;99.90;;;;;;5010004;28;20457;-75
2022/12/27 07:27:25;;;;;;;5.68;2.30;;;2.90;99.90;;;;;;4988379;28;20030;-74
2022/12/27 07:29:51;;;;;;;6.72;2.30;;;2.90;99.90;;;;;;4988219;28;20030;-75
2022/12/27 07:32:17;;;;;;;4.63;2.58;;;2.90;99.90;;;;;;4993605;28;20030;-75
2022/12/27 07:34:42;;;;;;;6.30;2.40;;;2.90;99.90;;;;;;5007126;28;20034;-75
2022/12/27 07:37:08;;;;;;;4.82;2.25;;;2.90;99.90;;;;;;5012239;28;20372;-76
2022/12/27 07:39:33;;;;;;;7.47;2.88;;;2.90;99.90;;;;;;5012551;28;20093;-76
2022/12/27 07:41:59;;;;;;;5.10;2.40;;;2.90;99.90;;;;;;4994531;28;20034;-76
2022/12/27 07:44:25;;;;;;;7.35;2.25;;;2.90;99.90;;;;;;5012375;28;20029;-77
2022/12/27 07:46:51;;;;;;;7.35;2.92;;;2.90;99.90;;;;;;5010261;28;20498;-76
2022/12/27 07:49:16;;;;;;;8.77;3.42;;;2.90;99.90;;;;;;5011972;28;20030;-77
2022/12/27 07:51:42;;;;;;;8.38;2.90;;;2.90;99.90;;;;;;4991874;28;20077;-74
2022/12/27 07:54:08;;;;;;;5.65;2.50;;;2.90;99.90;;;;;;4993701;28;20037;-76
2022/12/27 07:56:33;;;;;;;7.35;3.22;;;2.90;99.90;;;;;;4994462;28;20121;-76
2022/12/27 07:59:00;;;;;;;7.10;3.35;;;2.90;99.90;;;;;;4994344;28;20022;-77
2022/12/27 08:01:28;;;;;;;10.57;3.67;;;2.90;99.90;;;;;;4990952;28;20038;-77
2022/12/27 08:03:54;;;;;;;7.55;3.53;;;3.00;99.90;;;;;;4962232;28;20139;-76
2022/12/27 08:06:30;;;;;;;8.00;3.10;;;3.00;99.90;;;;;;5005848;28;20034;-76
2022/12/27 08:08:58;;;;;;;7.90;3.78;;;3.00;99.90;;;;;;5011885;28;20104;-75
2022/12/27 08:11:25;;;;;;;5.05;2.97;;;3.10;99.90;;;;;;5009023;28;20450;-76
2022/12/27 08:13:51;;;;;;;9.93;3.97;;;3.10;99.90;;;;;;5011025;28;20018;-78
2022/12/27 08:16:23;;;;;;;8.40;3.80;;;3.10;99.90;;;;;;5012200;28;20026;-77
2022/12/27 08:18:49;;;;;;;13.63;4.85;;;3.10;99.90;;;;;;5017266;28;20049;-77
2022/12/27 08:21:15;;;;;;;11.10;4.85;;;3.20;99.90;;;;;;5018005;28;20037;-78
2022/12/27 08:23:41;;;;;;;9.00;4.75;;;3.20;99.90;;;;;;5019770;28;20021;-75
2022/12/27 08:26:08;;;;;;;7.97;4.53;;;3.20;99.90;;;;;;5012547;28;20053;-75
2022/12/27 08:28:34;;;;;;;7.30;4.07;;;3.30;99.90;;;;;;5011481;28;20415;-77
2022/12/27 08:31:00;;;;;;;7.97;3.88;;;3.30;99.90;;;;;;5006051;28;20021;-74
2022/12/27 08:33:26;;;;;;;8.07;3.95;;;3.30;99.90;;;;;;5014711;28;20119;-78
2022/12/27 08:35:52;;;;;;;8.75;4.45;;;3.40;99.90;;;;;;5017756;28;20155;-73
2022/12/27 08:38:18;;;;;;;7.72;3.92;;;3.40;99.90;;;;;;5007059;28;20488;-75
2022/12/27 08:40:45;;;;;;;13.02;4.82;;;3.40;99.90;;;;;;5013224;28;20072;-74
2022/12/27 08:43:11;;;;;;;8.60;4.82;;;3.40;99.90;;;;;;5015765;28;20076;-75
2022/12/27 08:45:38;;;;;;;9.70;5.47;;;3.40;99.90;;;;;;5014565;28;20048;-76
2022/12/27 08:48:05;;;;;;;11.32;5.55;;;3.50;99.90;;;;;;5014912;28;20068;-74
2022/12/27 08:50:31;;;;;;;12.52;5.25;;;3.50;99.90;;;;;;5002873;28;20053;-75
2022/12/27 08:52:58;;;;;;;12.13;5.80;;;3.50;99.90;;;;;;4996672;28;20026;-75
2022/12/27 08:55:26;;;;;;;10.38;5.35;;;3.60;99.90;;;;;;4996324;28;20281;-76
2022/12/27 08:57:59;;;;;;;9.32;5.20;;;3.60;99.90;;;;;;5014687;28;20128;-76
2022/12/27 09:00:26;;;;;;;12.68;5.82;;;3.70;99.90;;;;;;5014953;28;20044;-76
2022/12/27 09:02:52;;;;;;;11.90;4.53;;;3.70;99.90;;;;;;5016183;28;20041;-76
2022/12/27 09:05:18;;;;;;;15.60;5.28;;;3.80;99.90;;;;;;5014325;28;20026;-76
2022/12/27 09:07:45;;;;;;;11.02;5.47;;;3.80;99.90;;;;;;5014298;28;20026;-76
2022/12/27 09:10:11;;;;;;;12.40;5.38;;;3.90;99.90;;;;;;5014547;28;20030;-76
2022/12/27 09:12:36;;;;;;;8.18;4.80;;;3.90;99.90;;;;;;5014493;28;20044;-76
2022/12/27 09:15:02;;;;;;;7.88;3.92;;;4.00;99.90;;;;;;5015823;28;20081;-76
2022/12/27 09:17:28;;;;;;;10.52;4.50;;;4.10;99.90;;;;;;5014482;28;20080;-76
2022/12/27 09:19:53;;;;;;;11.57;4.50;;;4.10;99.90;;;;;;5015418;28;20022;-75
2022/12/27 09:22:19;;;;;;;8.98;4.10;;;4.20;99.90;;;;;;5011342;28;20455;-76
2022/12/27 09:24:44;;;;;;;8.63;3.65;;;4.30;99.90;;;;;;4995953;28;20559;-76
2022/12/27 09:27:10;;;;;;;8.23;3.35;;;4.30;99.90;;;;;;4994578;28;20027;-76
2022/12/27 09:29:36;;;;;;;9.40;3.60;;;4.40;99.90;;;;;;4993647;28;20026;-75
2022/12/27 09:32:01;;;;;;;7.70;3.35;;;4.50;99.90;;;;;;4996017;28;20034;-76
2022/12/27 09:34:27;;;;;;;8.20;4.30;;;4.50;99.90;;;;;;4995956;28;20034;-76
2022/12/27 09:36:52;;;;;;;9.55;3.67;;;4.50;99.90;;;;;;4994143;28;20030;-76
2022/12/27 09:39:18;;;;;;;9.02;3.13;;;4.60;99.90;;;;;;4994014;28;20395;-74
2022/12/27 09:42:02;;;;;;;9.05;4.30;;;4.70;99.90;;;;;;4995340;28;20022;-76
2022/12/27 09:44:35;;;;;;;;;;;4.80;99.90;;;;;;4995078;28;20022;-76
2022/12/27 09:47:09;;;;;;;7.15;3.63;;;4.80;99.90;;;;;;4994762;28;19906;-75
2022/12/27 09:49:37;;;;;;;;;;;4.90;99.90;;;;;;4995965;28;20633;-76
2022/12/27 09:52:10;;;;;;;11.25;3.80;;;5.00;99.90;;;;;;4993670;28;19906;-76
2022/12/27 09:55:04;;;;;;;9.63;3.53;;;5.00;99.90;;;;;;4994181;28;20026;-76
2022/12/27 09:57:37;;;;;;;7.53;3.80;;;5.10;99.90;;;;;;4994872;28;20023;-76
2022/12/27 10:00:13;;;;;;;7.38;3.10;;;5.20;99.90;;;;;;4995049;28;20027;-74
2022/12/27 10:02:39;;;;;;;9.30;3.88;;;5.20;99.90;;;;;;4995165;28;20035;-76
2022/12/27 10:05:13;;;;;;;8.40;4.32;;;5.30;99.90;;;;;;4993878;28;20032;-75
2022/12/27 10:08:11;;;;;;;10.75;4.97;;;5.30;99.90;;;;;;4995094;28;20364;-76
2022/12/27 10:10:52;;;;;;;8.75;4.78;;;5.40;99.90;;;;;;4992157;28;20038;-75
2022/12/27 10:13:48;;;;;;;8.50;4.45;;;5.50;99.90;;;;;;4995130;28;20034;-76
2022/12/27 10:16:34;;;;;;;9.27;3.95;;;5.50;99.90;;;;;;4994778;28;20022;-77
2022/12/27 10:19:11;;;;;;;10.52;4.28;;;5.60;99.90;;;;;;4994499;28;20027;-76
2022/12/27 10:21:57;;;;;;;7.38;4.20;;;5.60;99.90;;;;;;5002364;23;20038;-81
2022/12/27 10:24:37;;;;;;;7.75;4.47;;;5.70;99.90;;;;;;4998145;28;20037;-81
2022/12/27 10:27:16;;;;;;;7.85;4.78;;;5.70;99.90;;;;;;4967964;28;20114;-81
2022/12/27 10:29:42;;;;;;;7.15;3.72;;;5.70;99.90;;;;;;4971786;28;20023;-81
2022/12/27 10:32:13;;;;;;;7.20;3.92;;;5.80;99.90;;;;;;4971635;28;20528;-81
2022/12/27 10:34:39;;;;;;;9.88;3.80;;;5.80;99.90;;;;;;4969038;28;20023;-81
2022/12/27 10:37:04;;;;;;;5.97;3.40;;;5.80;99.90;;;;;;4967541;28;20399;-82
2022/12/27 10:39:34;;;;;;;9.02;4.03;;;5.90;99.90;;;;;;4971370;28;20157;-81
2022/12/27 10:42:04;;;;;;;7.00;3.25;;;5.90;99.90;;;;;;4984361;28;20024;-82
2022/12/27 10:44:30;;;;;;;5.75;3.05;;;5.90;99.90;;;;;;4970680;28;20023;-81
2022/12/27 10:46:56;;;;;;;13.40;3.10;;;6.00;99.90;;;;;;4965786;28;20041;-81
2022/12/27 10:49:26;;;;;;;5.25;2.22;;;6.00;99.90;;;;;;4971449;28;20031;-81
2022/12/27 10:51:55;;;;;;;6.13;3.22;;;6.00;99.90;;;;;;4969692;28;20038;-81
2022/12/27 10:54:28;;;;;;;10.48;2.75;;;6.10;99.90;;;;;;4970194;28;20035;-81
2022/12/27 10:56:59;;;;;;;5.63;2.03;;;6.10;99.90;;;;;;4969418;28;20059;-81
2022/12/27 10:59:28;;;;;;;7.45;2.50;;;6.10;99.90;;;;;;4961469;28;20031;-89
2022/12/27 11:02:13;;;;;;;4.82;1.80;;;6.20;99.90;;;;;;4970699;28;20027;-85
2022/12/27 11:04:58;;;;;;;3.60;1.13;;;6.30;99.90;;;;;;4970961;28;20018;-85
2022/12/27 11:07:29;;;;;;;2.75;1.52;;;6.30;99.90;;;;;;4964777;28;20031;-88
2022/12/27 11:10:24;;;;;;;2.17;1.58;;;6.40;99.90;;;;;;4970809;28;20034;-87
2022/12/27 11:13:16;;;;;;;3.50;1.90;;;6.50;99.90;;;;;;4972162;28;20125;-90
2022/12/27 11:15:52;;;;;;;2.72;2.20;;;6.50;99.90;;;;;;4968454;28;20055;-87
2022/12/27 11:18:19;;;;;;;4.78;1.40;;;6.50;99.90;;;;;;4970617;28;20591;-91
2022/12/27 11:20:53;;;;;;;8.82;6.82;;;6.50;99.90;;;;;;4979514;28;20034;-90
2022/12/27 11:23:24;;;;;;;6.50;3.03;;;6.50;99.90;;;;;;4957290;28;20074;-89
2022/12/27 11:26:01;;;;;;;3.55;1.60;;;6.60;99.90;;;;;;4969039;28;20031;-84
2022/12/27 11:28:37;;;;;;;8.10;2.50;;;6.60;99.90;;;;;;4966040;28;20041;-88
2022/12/27 11:31:16;;;;;;;8.23;5.63;;;6.60;99.90;;;;;;4967141;28;20031;-89
2022/12/27 11:33:51;;;;;;;7.95;7.15;;;6.70;99.90;;;;;;4973809;28;20027;-89
2022/12/27 11:36:28;;;;;;;4.35;2.50;;;6.70;99.90;;;;;;4968653;28;20027;-85
2022/12/27 11:38:54;;;;;;;3.47;1.80;;;6.70;99.90;;;;;;4987790;28;20034;-89
2022/12/27 11:42:02;;;;;;;5.50;3.65;;;6.70;99.90;;;;;;4975911;28;20030;-93
2022/12/27 11:45:10;;;;;;;7.65;4.10;;;6.80;99.90;;;;;;4973229;28;20035;-93
2022/12/27 11:47:54;;;;;;;10.27;6.35;;;6.80;99.90;;;;;;4972734;28;20043;-92
2022/12/27 11:50:26;;;;;;;4.18;1.55;;;6.90;99.90;;;;;;4969190;28;20066;-87
2022/12/27 11:53:03;;;;;;;7.00;3.20;;;6.90;99.90;;;;;;4966006;28;20030;-87
2022/12/27 11:55:55;;;;;;;7.72;5.00;;;6.90;99.90;;;;;;4966600;28;20036;-89
2022/12/27 11:58:40;;;;;;;9.90;5.43;;;6.90;99.90;;;;;;4985247;28;20031;-86
2022/12/27 12:01:21;;;;;;;5.43;4.18;;;6.90;99.90;;;;;;4971591;28;20026;-89
2022/12/27 12:03:52;;;;;;;8.23;3.60;;;6.90;99.90;;;;;;4972557;28;20022;-89
2022/12/27 12:07:15;;;;;;;3.55;3.22;;;6.90;99.90;;;;;;4965589;28;20097;-89
2022/12/27 12:09:46;;;;;;;5.47;1.58;;;6.90;99.90;;;;;;4969883;28;20034;-89
2022/12/27 12:12:49;;;;;;;2.03;1.13;;;6.90;99.90;;;;;;4971547;28;20379;-87
2022/12/27 12:15:28;;;;;;;14.88;11.20;;;6.90;99.90;;;;;;4975743;28;20034;-88
2022/12/27 12:18:00;;;;;;;6.35;3.92;;;6.80;99.90;;;;;;4970490;28;20492;-90
2022/12/27 12:20:38;;;;;;;2.67;1.50;;;6.90;99.90;;;;;;4966745;28;20114;-91
2022/12/27 12:23:03;;;;;;;8.15;2.67;;;6.90;99.90;;;;;;4968570;28;20026;-82
2022/12/27 12:25:50;;;;;;;3.97;2.60;;;6.90;99.90;;;;;;4972135;28;20038;-82
2022/12/27 12:28:16;;;;;;;3.85;2.03;;;7.00;99.90;;;;;;4966115;28;20035;-85
2022/12/27 12:31:09;;;;;;;8.60;1.75;;;7.20;99.90;;;;;;4957745;28;20027;-85
2022/12/27 12:33:47;;;;;;;7.97;3.70;;;7.30;99.90;;;;;;4981159;28;20429;-85
2022/12/27 12:36:25;;;;;;;8.15;3.05;;;7.40;99.90;;;;;;4965853;28;20042;-81
2022/12/27 12:38:57;;;;;;;7.43;3.33;;;7.50;99.90;;;;;;4964280;28;20031;-86
2022/12/27 12:41:26;;;;;;;6.30;2.50;;;7.70;99.90;;;;;;4972590;28;20038;-94
2022/12/27 12:44:02;;;;;;;4.97;2.58;;;7.70;99.90;;;;;;4983255;28;20891;-85
2022/12/27 12:46:31;;;;;;;5.50;1.70;;;7.80;99.90;;;;;;4961721;28;20023;-83
2022/12/27 12:49:04;;;;;;;2.33;1.23;;;7.80;99.90;;;;;;4963161;28;20034;-83
2022/12/27 12:51:39;;;;;;;1.50;1.00;;;7.90;99.90;;;;;;4967128;28;20554;-84
2022/12/27 12:54:14;;;;;;;2.03;0.70;;;8.00;99.90;;;;;;4970033;28;20041;-95
2022/12/27 12:57:04;;;;;;;2.03;0.80;;;8.10;99.90;;;;;;4969723;28;20038;-89
2022/12/27 12:59:42;;;;;;;5.90;1.30;;;8.20;99.90;;;;;;4960279;28;20077;-89
2022/12/27 13:02:26;;;;;;;4.45;1.25;;;8.10;99.90;;;;;;4965324;28;20038;-88
2022/12/27 13:05:00;;;;;;;4.45;1.13;;;8.10;99.90;;;;;;4969804;28;20023;-91
2022/12/27 13:08:09;;;;;;;6.40;2.80;;;7.90;99.90;;;;;;4973668;28;20098;-89
2022/12/27 13:11:03;;;;;;;4.75;2.42;;;7.80;99.90;;;;;;4969462;28;20095;-87
2022/12/27 13:14:03;;;;;;;6.77;2.70;;;7.70;99.90;;;;;;4971087;28;20033;-91
2022/12/27 13:16:48;;;;;;;4.72;1.88;;;7.60;99.90;;;;;;5056136;23;20877;-78
2022/12/27 13:19:48;;;;;;;5.43;2.10;;;7.50;99.90;;;;;;5005567;28;20498;-81
2022/12/27 13:22:30;;;;;;;4.68;1.35;;;7.40;99.90;;;;;;4983303;28;20032;-78
2022/12/27 13:25:11;;;;;;;5.50;2.72;;;7.40;99.90;;;;;;4990073;28;20018;-77
2022/12/27 13:27:58;;;;;;;4.07;1.80;;;7.40;99.90;;;;;;4995927;28;20030;-78
2022/12/27 13:30:34;;;;;;;5.35;1.95;;;7.30;99.90;;;;;;4999278;28;20022;-77
2022/12/27 13:33:12;;;;;;;3.25;1.35;;;7.20;99.90;;;;;;4980000;28;20033;-78
2022/12/27 13:36:12;;;;;;;5.47;1.13;;;7.20;99.90;;;;;;4977287;28;20036;-77
2022/12/27 13:39:05;;;;;;;7.93;1.90;;;7.20;99.90;;;;;;4996072;28;20375;-79
2022/12/27 13:41:48;;;;;;;10.95;4.20;;;7.20;99.90;;;;;;4967033;28;20049;-80
2022/12/27 13:44:37;;;;;;;6.57;2.25;;;7.20;99.90;;;;;;4968783;28;20109;-81
2022/12/27 13:47:29;;;;;;;13.90;7.72;;;7.10;99.90;;;;;;4976344;28;20051;-80
2022/12/27 13:50:20;;;;;;;6.75;2.63;;;7.10;99.90;;;;;;4955072;28;20015;-80
2022/12/27 13:53:00;;;;;;;5.05;1.67;;;7.00;99.90;;;;;;4957638;28;20054;-79
2022/12/27 13:55:36;;;;;;;7.60;2.08;;;7.00;99.90;;;;;;4965876;28;20033;-80
2022/12/27 13:58:21;;;;;;;6.28;2.28;;;7.00;99.90;;;;;;4984001;28;20027;-81
2022/12/27 14:01:10;;;;;;;10.50;6.93;;;7.00;99.90;;;;;;4966218;28;20079;-80
2022/12/27 14:04:12;;;;;;;5.55;2.58;;;6.90;99.90;;;;;;4982419;28;20102;-81
2022/12/27 14:07:07;;;;;;;5.32;2.00;;;6.80;99.90;;;;;;4968026;28;20027;-80
2022/12/27 14:10:05;;;;;;;5.97;3.42;;;6.80;99.90;;;;;;4950818;28;20039;-80
2022/12/27 14:12:40;;;;;;;7.72;1.80;;;6.80;99.90;;;;;;4946467;28;20035;-80
2022/12/27 14:15:11;;;;;;;7.15;1.65;;;6.80;99.90;;;;;;4965794;28;20090;-80
2022/12/27 14:18:17;;;;;;;6.10;2.95;;;6.80;99.90;;;;;;4968983;28;20054;-81
2022/12/27 14:20:46;;;;;;;6.28;2.25;;;6.80;99.90;;;;;;4963900;28;20066;-80
2022/12/27 14:23:25;;;;;;;5.45;1.67;;;6.70;99.90;;;;;;4983369;28;20026;-81
2022/12/27 14:26:24;;;;;;;4.13;1.90;;;6.70;99.90;;;;;;4981503;28;20034;-81
2022/12/27 14:29:05;;;;;;;5.15;1.70;;;6.60;99.90;;;;;;4984810;28;20034;-80
2022/12/27 14:31:40;;;;;;;5.38;2.28;;;6.60;99.90;;;;;;4990988;28;20033;-80
2022/12/27 14:34:32;;;;;;;5.35;1.88;;;6.60;99.90;;;;;;4980657;28;20030;-80
2022/12/27 14:37:07;;;;;;;5.80;1.65;;;6.50;99.90;;;;;;5002687;28;20045;-79
2022/12/27 14:39:45;;;;;;;5.90;1.98;;;6.50;99.90;;;;;;4990799;28;20038;-79
2022/12/27 14:42:32;;;;;;;4.75;1.95;;;6.50;99.90;;;;;;5006013;28;20018;-79
2022/12/27 14:45:34;;;;;;;5.65;2.72;;;6.50;99.90;;;;;;5000272;28;20030;-79
2022/12/27 14:48:22;;;;;;;6.40;2.70;;;6.50;99.90;;;;;;4994717;28;20023;-79
2022/12/27 14:51:13;;;;;;;7.03;4.72;;;6.40;99.90;;;;;;5001824;28;20365;-80
2022/12/27 14:53:42;;;;;;;5.45;2.17;;;6.40;99.90;;;;;;4992298;28;20049;-80
2022/12/27 14:56:19;;;;;;;9.07;1.95;;;6.40;99.90;;;;;;4999013;28;20026;-80
2022/12/27 14:58:51;;;;;;;9.73;3.05;;;6.30;99.90;;;;;;5005241;28;20035;-80
2022/12/27 15:01:30;;;;;;;5.35;2.10;;;6.30;99.90;;;;;;4982686;28;20026;-80
2022/12/27 15:04:07;;;;;;;8.82;2.13;;;6.30;99.90;;;;;;4983407;28;20019;-80
2022/12/27 15:07:07;;;;;;;7.65;2.80;;;6.30;99.90;;;;;;4983297;28;20037;-80
2022/12/27 15:10:03;;;;;;;7.13;2.55;;;6.20;99.90;;;;;;4999004;28;20026;-79
2022/12/27 15:12:54;;;;;;;6.43;2.38;;;6.20;99.90;;;;;;5000340;28;20622;-79